createdAt,value
2023-04-02T00:00:18.507Z,61.83
2023-04-02T00:03:22.523Z,62.32
2023-04-02T00:06:35.077Z,62.81
2023-04-02T00:09:38.548Z,63.68
2023-04-02T00:13:19.193Z,63.97
2023-04-02T00:16:25.059Z,63.79
2023-04-02T00:19:36.772Z,65.10
2023-04-02T00:22:44.820Z,65.10
2023-04-02T00:25:47.993Z,65.00
2023-04-02T00:28:52.445Z,64.24
2023-04-02T00:31:59.182Z,65.70
2023-04-02T00:35:02.781Z,64.53
2023-04-02T00:38:06.346Z,64.86
2023-04-02T00:41:16.664Z,64.05
2023-04-02T00:44:21.892Z,63.87
2023-04-02T00:47:32.055Z,63.71
2023-04-02T00:50:41.316Z,64.78
2023-04-02T00:53:47.539Z,64.47
2023-04-02T00:56:55.157Z,64.46
2023-04-02T01:00:16.010Z,65.46
2023-04-02T01:03:23.086Z,63.82
2023-04-02T01:06:37.395Z,64.36
2023-04-02T01:10:15.640Z,64.44
2023-04-02T01:13:25.233Z,64.12
2023-04-02T01:16:31.427Z,63.92
2023-04-02T01:19:52.879Z,64.15
2023-04-02T01:23:32.712Z,64.26
2023-04-02T01:26:58.081Z,64.49
2023-04-02T01:30:05.258Z,64.00
2023-04-02T01:33:08.499Z,64.28
2023-04-02T01:36:26.412Z,63.99
2023-04-02T01:39:57.038Z,63.59
2023-04-02T01:43:48.261Z,63.64
2023-04-02T01:46:51.564Z,63.81
2023-04-02T01:50:17.546Z,63.26
2023-04-02T01:53:23.173Z,63.58
2023-04-02T01:56:28.110Z,62.71
2023-04-02T01:59:33.377Z,62.81
2023-04-02T02:02:39.935Z,62.60
2023-04-02T02:05:44.092Z,62.18
2023-04-02T02:08:48.910Z,62.28
2023-04-02T02:11:52.574Z,61.54
2023-04-02T02:14:55.740Z,61.81
2023-04-02T02:18:05.532Z,61.57
2023-04-02T02:21:10.712Z,61.53
2023-04-02T02:24:32.556Z,62.29
2023-04-02T02:28:18.301Z,62.38
2023-04-02T02:31:29.747Z,63.12
2023-04-02T02:34:40.250Z,62.81
2023-04-02T02:37:48.025Z,62.70
2023-04-02T02:40:56.842Z,62.30
2023-04-02T02:44:06.675Z,62.31
2023-04-02T02:47:25.401Z,62.17
2023-04-02T02:50:31.898Z,62.46
2023-04-02T02:53:49.888Z,62.20
2023-04-02T02:56:59.635Z,61.85
2023-04-02T03:00:08.022Z,62.53
2023-04-02T03:03:17.089Z,63.00
2023-04-02T03:06:21.762Z,62.84
2023-04-02T03:09:42.084Z,62.44
2023-04-02T03:12:53.744Z,62.74
2023-04-02T03:16:20.846Z,61.93
2023-04-02T03:20:16.148Z,62.45
2023-04-02T03:23:32.611Z,62.64
2023-04-02T03:26:42.429Z,62.10
2023-04-02T03:30:02.222Z,62.43
2023-04-02T03:33:30.539Z,62.46
2023-04-02T03:36:59.011Z,62.90
2023-04-02T03:40:13.129Z,62.69
2023-04-02T03:43:26.240Z,62.66
2023-04-02T03:46:37.751Z,62.92
2023-04-02T03:49:56.429Z,62.03
2023-04-02T03:53:01.814Z,62.66
2023-04-02T03:56:07.728Z,62.45
2023-04-02T03:59:36.037Z,62.37
2023-04-02T04:02:50.112Z,62.72
2023-04-02T04:06:07.136Z,62.40
2023-04-02T04:09:20.986Z,62.02
2023-04-02T04:12:24.233Z,62.11
2023-04-02T04:15:35.165Z,62.09
2023-04-02T04:18:52.010Z,62.72
2023-04-02T04:22:10.150Z,62.21
2023-04-02T04:25:35.154Z,61.69
2023-04-02T04:29:12.744Z,63.12
2023-04-02T04:32:34.530Z,62.98
2023-04-02T04:35:50.182Z,62.63
2023-04-02T04:38:59.587Z,62.75
2023-04-02T04:42:07.579Z,62.61
2023-04-02T04:45:28.931Z,62.46
2023-04-02T04:49:08.587Z,62.98
2023-04-02T04:52:24.537Z,62.54
2023-04-02T04:55:35.321Z,62.40
2023-04-02T04:58:49.047Z,62.61
2023-04-02T05:02:05.980Z,63.56
2023-04-02T05:05:25.193Z,63.97
2023-04-02T05:08:35.903Z,63.84
2023-04-02T05:11:47.524Z,63.04
2023-04-02T05:15:03.001Z,63.73
2023-04-02T05:18:33.120Z,63.56
2023-04-02T05:21:47.405Z,63.57
2023-04-02T05:25:21.900Z,64.11
2023-04-02T05:28:37.131Z,63.83
2023-04-02T05:32:11.093Z,63.68
2023-04-02T05:35:21.250Z,63.78
2023-04-02T05:38:30.497Z,63.96
2023-04-02T05:41:46.052Z,64.18
2023-04-02T05:45:28.114Z,63.60
2023-04-02T05:48:43.504Z,63.21
2023-04-02T05:51:54.131Z,63.83
2023-04-02T05:55:48.248Z,63.01
2023-04-02T05:58:58.284Z,63.56
2023-04-02T06:02:31.063Z,63.73
2023-04-02T06:05:40.252Z,63.57
2023-04-02T06:08:52.278Z,62.41
2023-04-02T06:12:24.711Z,62.64
2023-04-02T06:15:28.044Z,62.15
2023-04-02T06:18:37.324Z,62.44
2023-04-02T06:21:45.443Z,62.76
2023-04-02T06:25:02.512Z,62.65
2023-04-02T06:28:17.347Z,62.21
2023-04-02T06:31:42.661Z,61.20
2023-04-02T06:34:47.988Z,61.01
2023-04-02T06:37:56.302Z,60.83
2023-04-02T06:41:12.923Z,61.46
2023-04-02T06:44:31.862Z,60.75
2023-04-02T06:48:04.279Z,60.72
2023-04-02T06:51:23.243Z,60.33
2023-04-02T06:54:26.452Z,60.50
2023-04-02T06:57:36.046Z,60.97
2023-04-02T07:00:43.840Z,60.56
2023-04-02T07:03:52.741Z,60.97
2023-04-02T07:07:07.093Z,59.68
2023-04-02T07:10:14.229Z,60.47
2023-04-02T07:13:25.049Z,59.71
2023-04-02T07:16:33.744Z,59.75
2023-04-02T07:19:37.012Z,61.13
2023-04-02T07:22:40.895Z,59.20
2023-04-02T07:25:44.590Z,60.15
2023-04-02T07:28:47.778Z,59.39
2023-04-02T07:31:53.019Z,60.08
2023-04-02T07:34:56.184Z,60.56
2023-04-02T07:37:59.112Z,60.78
2023-04-02T07:41:06.440Z,60.45
2023-04-02T07:44:11.074Z,61.09
2023-04-02T07:47:13.947Z,60.74
2023-04-02T07:50:18.017Z,61.43
2023-04-02T07:53:34.633Z,60.87
2023-04-02T07:56:38.694Z,60.53
2023-04-02T07:59:41.707Z,61.17
2023-04-02T08:02:45.593Z,60.09
2023-04-02T08:05:54.438Z,60.47
2023-04-02T08:08:58.649Z,60.77
2023-04-02T08:12:02.263Z,60.66
2023-04-02T08:15:07.115Z,61.38
2023-04-02T08:18:11.703Z,60.12
2023-04-02T08:21:16.538Z,61.31
2023-04-02T08:24:21.185Z,60.61
2023-04-02T08:27:26.077Z,61.04
2023-04-02T08:30:29.530Z,60.64
2023-04-02T08:33:32.792Z,60.28
2023-04-02T08:36:41.724Z,59.71
2023-04-02T08:39:45.128Z,59.40
2023-04-02T08:43:29.496Z,58.61
2023-04-02T08:46:36.402Z,59.65
2023-04-02T08:49:49.573Z,59.72
2023-04-02T08:52:53.171Z,58.93
2023-04-02T08:56:18.120Z,58.89
2023-04-02T08:59:33.732Z,58.41
2023-04-02T09:02:41.967Z,58.38
2023-04-02T09:05:47.330Z,58.36
2023-04-02T09:08:53.601Z,57.87
2023-04-02T09:12:04.411Z,57.67
2023-04-02T09:15:10.668Z,58.88
2023-04-02T09:18:19.301Z,58.92
2023-04-02T09:21:22.638Z,58.66
2023-04-02T09:24:26.216Z,59.08
2023-04-02T09:27:32.435Z,59.30
2023-04-02T09:30:43.510Z,58.30
2023-04-02T09:33:50.069Z,60.59
2023-04-02T09:36:53.142Z,57.57
2023-04-02T09:40:29.708Z,57.66
2023-04-02T09:43:38.154Z,57.15
2023-04-02T09:46:49.784Z,56.52
2023-04-02T09:49:53.007Z,55.85
2023-04-02T09:52:56.583Z,55.56
2023-04-02T09:56:26.708Z,54.84
2023-04-02T09:59:30.064Z,56.40
2023-04-02T10:02:33.591Z,57.04
2023-04-02T10:05:40.967Z,55.69
2023-04-02T10:08:45.813Z,57.22
2023-04-02T10:11:51.029Z,56.63
2023-04-02T10:14:56.511Z,56.04
2023-04-02T10:18:12.211Z,54.47
2023-04-02T10:21:23.792Z,54.60
2023-04-02T10:24:28.975Z,54.42
2023-04-02T10:27:45.368Z,54.97
2023-04-02T10:31:00.707Z,54.97
2023-04-02T10:34:17.639Z,53.94
2023-04-02T10:37:32.844Z,52.92
2023-04-02T10:40:39.882Z,54.21
2023-04-02T10:44:12.737Z,53.27
2023-04-02T10:47:27.334Z,53.00
2023-04-02T10:50:44.978Z,54.24
2023-04-02T10:53:54.848Z,52.31
2023-04-02T10:57:07.861Z,52.19
2023-04-02T11:00:11.579Z,53.23
2023-04-02T11:03:42.478Z,54.12
2023-04-02T11:07:03.544Z,54.88
2023-04-02T11:10:20.066Z,55.36
2023-04-02T11:13:31.585Z,57.82
2023-04-02T11:16:37.751Z,57.32
2023-04-02T11:19:44.414Z,53.98
2023-04-02T11:23:13.873Z,54.59
2023-04-02T11:26:42.998Z,56.29
2023-04-02T11:30:22.686Z,54.90
2023-04-02T11:33:48.134Z,55.23
2023-04-02T11:36:55.562Z,56.16
2023-04-02T11:40:06.205Z,56.16
2023-04-02T11:43:42.065Z,54.06
2023-04-02T11:46:45.855Z,53.19
2023-04-02T11:49:55.970Z,50.84
2023-04-02T11:53:03.259Z,50.65
2023-04-02T11:56:07.941Z,50.12
2023-04-02T11:59:36.583Z,50.08
2023-04-02T12:02:49.471Z,48.78
2023-04-02T12:06:06.439Z,50.73
2023-04-02T12:09:31.031Z,51.03
2023-04-02T12:12:40.557Z,52.15
2023-04-02T12:15:49.057Z,54.21
2023-04-02T12:18:54.666Z,56.11
2023-04-02T12:21:59.578Z,57.14
2023-04-02T12:25:05.323Z,59.68
2023-04-02T12:28:11.580Z,59.89
2023-04-02T12:31:19.678Z,60.29
2023-04-02T12:34:26.286Z,60.26
2023-04-02T12:37:30.863Z,62.02
2023-04-02T12:40:34.334Z,61.88
2023-04-02T12:43:38.280Z,64.76
2023-04-02T12:46:42.609Z,65.82
2023-04-02T12:49:47.363Z,65.59
2023-04-02T12:52:55.153Z,67.57
2023-04-02T12:55:58.709Z,69.35
2023-04-02T12:59:02.032Z,68.64
2023-04-02T13:02:31.093Z,68.26
2023-04-02T13:09:03.412Z,63.93
2023-04-02T13:12:21.098Z,62.49
2023-04-02T13:15:30.809Z,58.98
2023-04-02T13:18:37.298Z,58.19
2023-04-02T13:21:40.986Z,57.74
2023-04-02T13:24:44.547Z,59.17
2023-04-02T13:27:48.041Z,61.59
2023-04-02T13:30:51.312Z,63.84
2023-04-02T13:33:54.831Z,64.27
2023-04-02T13:36:58.361Z,59.55
2023-04-02T13:40:02.294Z,59.69
2023-04-02T13:43:08.213Z,59.36
2023-04-02T13:46:23.849Z,60.58
2023-04-02T13:49:27.984Z,58.19
2023-04-02T13:52:31.261Z,56.43
2023-04-02T13:55:41.649Z,56.09
2023-04-02T13:58:46.029Z,56.96
2023-04-02T14:01:52.585Z,58.35
2023-04-02T14:05:15.929Z,58.17
2023-04-02T14:08:50.814Z,57.75
2023-04-02T14:11:59.980Z,59.22
2023-04-02T14:15:30.722Z,60.61
2023-04-02T14:19:08.336Z,64.37
2023-04-02T14:22:26.523Z,64.38
2023-04-02T14:25:44.500Z,64.00
2023-04-02T14:29:16.612Z,63.68
2023-04-02T14:32:31.530Z,62.18
2023-04-02T14:35:43.612Z,60.17
2023-04-02T14:39:08.610Z,59.12
2023-04-02T14:42:31.387Z,58.74
2023-04-02T14:45:58.803Z,58.69
2023-04-02T14:49:15.571Z,58.72
2023-04-02T14:52:22.947Z,59.30
2023-04-02T14:55:47.074Z,60.34
2023-04-02T14:59:03.389Z,61.29
2023-04-02T15:02:33.076Z,62.36
2023-04-02T15:05:43.040Z,62.62
2023-04-02T15:09:08.299Z,62.75
2023-04-02T15:12:33.882Z,62.49
2023-04-02T15:15:41.572Z,62.04
2023-04-02T15:18:44.735Z,61.26
2023-04-02T15:22:21.790Z,60.37
2023-04-02T15:25:40.399Z,60.18
2023-04-02T15:28:55.088Z,61.31
2023-04-02T15:32:21.160Z,62.81
2023-04-02T15:35:41.719Z,64.91
2023-04-02T15:38:51.312Z,66.47
2023-04-02T15:42:09.749Z,66.28
2023-04-02T15:45:12.765Z,65.98
2023-04-02T15:48:23.542Z,66.28
2023-04-02T15:51:55.586Z,64.29
2023-04-02T15:55:22.871Z,63.42
2023-04-02T15:58:32.361Z,63.44
2023-04-02T16:01:40.933Z,63.82
2023-04-02T16:05:03.881Z,64.32
2023-04-02T16:08:25.288Z,65.67
2023-04-02T16:11:28.739Z,65.11
2023-04-02T16:14:33.783Z,63.22
2023-04-02T16:17:51.607Z,64.11
2023-04-02T16:20:57.349Z,64.24
2023-04-02T16:24:00.560Z,65.01
2023-04-02T16:27:15.072Z,65.00
2023-04-02T16:30:34.553Z,65.61
2023-04-02T16:34:15.734Z,66.07
2023-04-02T16:37:45.016Z,66.68
2023-04-02T16:41:26.322Z,66.78
2023-04-02T16:45:15.414Z,67.13
2023-04-02T16:48:43.451Z,67.52
2023-04-02T16:52:13.661Z,68.46
2023-04-02T16:55:52.326Z,68.92
2023-04-02T16:59:27.723Z,69.13
2023-04-02T17:03:15.097Z,69.87
2023-04-02T17:06:18.290Z,70.31
2023-04-02T17:09:50.092Z,68.58
2023-04-02T17:13:28.203Z,67.32
2023-04-02T17:16:41.040Z,66.23
2023-04-02T17:19:44.938Z,64.17
2023-04-02T17:22:49.041Z,62.94
2023-04-02T17:26:00.833Z,61.12
2023-04-02T17:29:09.556Z,60.19
2023-04-02T17:32:22.368Z,60.60
2023-04-02T17:35:55.444Z,59.91
2023-04-02T17:38:58.712Z,60.33
2023-04-02T17:42:29.069Z,59.70
2023-04-02T17:45:53.355Z,60.10
2023-04-02T17:49:36.988Z,60.01
2023-04-02T17:53:08.542Z,60.65
2023-04-02T17:56:24.087Z,60.84
2023-04-02T18:00:06.264Z,61.37
2023-04-02T18:03:49.603Z,61.64
2023-04-02T18:07:11.081Z,61.34
2023-04-02T18:10:52.941Z,61.92
2023-04-02T18:14:00.697Z,61.47
2023-04-02T18:17:26.204Z,61.79
2023-04-02T18:20:55.797Z,62.50
2023-04-02T18:24:14.121Z,62.14
2023-04-02T18:27:26.530Z,62.13
2023-04-02T18:30:54.070Z,63.00
2023-04-02T18:34:20.006Z,63.29
2023-04-02T18:37:49.750Z,63.83
2023-04-02T18:41:17.739Z,64.00
2023-04-02T18:44:29.278Z,62.67
2023-04-02T18:48:07.154Z,62.73
2023-04-02T18:51:18.781Z,62.75
2023-04-02T18:54:36.043Z,62.32
2023-04-02T18:57:42.498Z,62.88
2023-04-02T19:00:46.789Z,63.38
2023-04-02T19:04:02.733Z,63.16
2023-04-02T19:07:16.072Z,62.87
2023-04-02T19:10:35.448Z,63.30
2023-04-02T19:13:41.794Z,63.13
2023-04-02T19:17:04.700Z,63.41
2023-04-02T19:20:11.105Z,62.94
2023-04-02T19:23:14.518Z,62.92
2023-04-02T19:26:26.831Z,62.82
2023-04-02T19:29:42.615Z,63.55
2023-04-02T19:32:46.138Z,63.09
2023-04-02T19:35:58.900Z,63.62
2023-04-02T19:39:11.628Z,62.76
2023-04-02T19:42:44.256Z,63.27
2023-04-02T19:45:49.292Z,63.69
2023-04-02T19:49:12.398Z,63.09
2023-04-02T19:52:16.384Z,63.34
2023-04-02T19:55:19.827Z,62.95
2023-04-02T19:58:33.207Z,62.55
2023-04-02T20:01:36.647Z,62.47
2023-04-02T20:04:39.910Z,62.48
2023-04-02T20:07:42.821Z,62.83
2023-04-02T20:10:47.874Z,63.07
2023-04-02T20:13:52.948Z,63.10
2023-04-02T20:16:56.192Z,63.33
2023-04-02T20:19:59.552Z,62.96
2023-04-02T20:23:02.673Z,63.51
2023-04-02T20:26:06.833Z,63.58
2023-04-02T20:29:10.044Z,63.76
2023-04-02T20:32:13.756Z,64.27
2023-04-02T20:35:17.500Z,64.47
2023-04-02T20:38:20.788Z,64.29
2023-04-02T20:41:24.228Z,64.13
2023-04-02T20:44:28.604Z,64.77
2023-04-02T20:47:32.351Z,64.85
2023-04-02T20:50:35.731Z,64.55
2023-04-02T20:53:39.261Z,64.52
2023-04-02T20:56:45.476Z,64.32
2023-04-02T20:59:48.929Z,64.10
2023-04-02T21:02:52.254Z,64.41
2023-04-02T21:05:55.556Z,63.75
2023-04-02T21:08:59.306Z,63.61
2023-04-02T21:12:02.610Z,63.27
2023-04-02T21:15:06.773Z,63.51
2023-04-02T21:18:09.856Z,63.04
2023-04-02T21:21:14.142Z,63.19
2023-04-02T21:24:17.479Z,63.15
2023-04-02T21:27:23.768Z,63.01
2023-04-02T21:30:27.113Z,63.46
2023-04-02T21:33:32.761Z,62.92
2023-04-02T21:36:39.615Z,63.48
2023-04-02T21:39:42.922Z,63.73
2023-04-02T21:42:46.132Z,63.67
2023-04-02T21:45:49.067Z,64.01
2023-04-02T21:48:54.260Z,64.08
2023-04-02T21:51:57.310Z,64.41
2023-04-02T21:55:00.249Z,64.61
2023-04-02T21:58:03.506Z,64.61
2023-04-02T22:01:11.162Z,64.70
2023-04-02T22:04:20.838Z,64.50
2023-04-02T22:07:23.792Z,65.08
2023-04-02T22:10:27.187Z,64.34
2023-04-02T22:13:30.322Z,64.56
2023-04-02T22:16:35.172Z,64.63
2023-04-02T22:19:38.384Z,64.39
2023-04-02T22:22:41.843Z,64.04
2023-04-02T22:25:44.930Z,63.78
2023-04-02T22:28:48.116Z,63.47
2023-04-02T22:31:51.294Z,63.66
2023-04-02T22:34:54.554Z,64.41
2023-04-02T22:37:57.614Z,63.87
2023-04-02T22:41:03.910Z,63.81
2023-04-02T22:44:07.264Z,63.91
2023-04-02T22:47:10.790Z,63.51
2023-04-02T22:50:13.862Z,63.81
2023-04-02T22:53:17.098Z,64.11
2023-04-02T22:56:23.113Z,64.11
2023-04-02T22:59:26.894Z,63.73
2023-04-02T23:02:32.009Z,63.55
2023-04-02T23:05:35.077Z,62.84
2023-04-02T23:08:39.036Z,63.23
2023-04-02T23:11:43.016Z,63.24
2023-04-02T23:14:46.311Z,63.02
2023-04-02T23:17:49.328Z,63.07
2023-04-02T23:20:54.656Z,63.10
2023-04-02T23:23:58.301Z,62.76
2023-04-02T23:27:01.580Z,62.40
2023-04-02T23:30:05.614Z,62.69
2023-04-02T23:33:09.292Z,62.60
2023-04-02T23:36:30.870Z,63.29
2023-04-02T23:39:34.569Z,62.69
2023-04-02T23:42:37.768Z,63.02
2023-04-02T23:45:41.615Z,63.08
2023-04-02T23:48:46.074Z,63.34
2023-04-02T23:51:49.621Z,63.21
2023-04-02T23:54:52.542Z,63.41
2023-04-02T23:57:56.012Z,63.33
